sensor_id;sensor_type;location;lat;lon;timestamp;temperature;humidity
11818;DHT22;5966;52.402;5.322;2022-08-19T00:00:38;19.20;99.90
11818;DHT22;5966;52.402;5.322;2022-08-19T00:03:08;19.10;99.90
11818;DHT22;5966;52.402;5.322;2022-08-19T00:05:40;19.10;99.90
11818;DHT22;5966;52.402;5.322;2022-08-19T00:08:11;19.10;99.90
11818;DHT22;5966;52.402;5.322;2022-08-19T00:10:43;19.10;99.90
11818;DHT22;5966;52.402;5.322;2022-08-19T00:13:15;19.00;99.90
11818;DHT22;5966;52.402;5.322;2022-08-19T00:15:45;19.00;99.90
11818;DHT22;5966;52.402;5.322;2022-08-19T00:18:13;19.00;99.90
11818;DHT22;5966;52.402;5.322;2022-08-19T00:20:41;19.00;99.90
11818;DHT22;5966;52.402;5.322;2022-08-19T00:23:11;19.00;99.90
11818;DHT22;5966;52.402;5.322;2022-08-19T00:25:45;19.00;99.90
11818;DHT22;5966;52.402;5.322;2022-08-19T00:28:16;19.00;99.90
11818;DHT22;5966;52.402;5.322;2022-08-19T00:30:50;19.00;99.90
11818;DHT22;5966;52.402;5.322;2022-08-19T00:33:31;19.00;99.90
11818;DHT22;5966;52.402;5.322;2022-08-19T00:36:06;19.00;99.90
11818;DHT22;5966;52.402;5.322;2022-08-19T00:38:38;19.00;99.90
11818;DHT22;5966;52.402;5.322;2022-08-19T00:41:19;19.00;99.90
11818;DHT22;5966;52.402;5.322;2022-08-19T00:44:06;18.90;99.90
11818;DHT22;5966;52.402;5.322;2022-08-19T00:46:45;18.90;99.90
11818;DHT22;5966;52.402;5.322;2022-08-19T00:49:27;18.90;99.90
11818;DHT22;5966;52.402;5.322;2022-08-19T00:52:06;18.80;99.90
11818;DHT22;5966;52.402;5.322;2022-08-19T00:54:40;18.80;99.90
11818;DHT22;5966;52.402;5.322;2022-08-19T00:57:19;18.70;99.90
11818;DHT22;5966;52.402;5.322;2022-08-19T00:59:58;18.70;99.90
11818;DHT22;5966;52.402;5.322;2022-08-19T01:02:31;18.60;99.90
11818;DHT22;5966;52.402;5.322;2022-08-19T01:05:05;18.60;99.90
11818;DHT22;5966;52.402;5.322;2022-08-19T01:07:41;18.50;99.90
11818;DHT22;5966;52.402;5.322;2022-08-19T01:10:19;18.50;99.90
11818;DHT22;5966;52.402;5.322;2022-08-19T01:12:55;18.50;99.90
11818;DHT22;5966;52.402;5.322;2022-08-19T01:15:29;18.50;99.90
11818;DHT22;5966;52.402;5.322;2022-08-19T01:18:05;18.50;99.90
11818;DHT22;5966;52.402;5.322;2022-08-19T01:20:40;18.60;99.90
11818;DHT22;5966;52.402;5.322;2022-08-19T01:23:19;18.60;99.90
11818;DHT22;5966;52.402;5.322;2022-08-19T01:26:17;18.60;99.90
11818;DHT22;5966;52.402;5.322;2022-08-19T01:28:55;18.60;99.90
11818;DHT22;5966;52.402;5.322;2022-08-19T01:31:29;18.70;99.90
11818;DHT22;5966;52.402;5.322;2022-08-19T01:34:01;18.70;99.90
11818;DHT22;5966;52.402;5.322;2022-08-19T01:36:36;18.60;99.90
11818;DHT22;5966;52.402;5.322;2022-08-19T01:39:13;18.60;99.90
11818;DHT22;5966;52.402;5.322;2022-08-19T01:41:52;18.60;99.90
11818;DHT22;5966;52.402;5.322;2022-08-19T01:44:25;18.50;99.90
11818;DHT22;5966;52.402;5.322;2022-08-19T01:47:05;18.50;99.90
11818;DHT22;5966;52.402;5.322;2022-08-19T01:49:40;18.50;99.90
11818;DHT22;5966;52.402;5.322;2022-08-19T01:52:16;18.40;99.90
11818;DHT22;5966;52.402;5.322;2022-08-19T01:54:51;18.40;99.90
11818;DHT22;5966;52.402;5.322;2022-08-19T01:57:20;18.40;99.90
11818;DHT22;5966;52.402;5.322;2022-08-19T01:59:54;18.30;99.90
11818;DHT22;5966;52.402;5.322;2022-08-19T02:02:26;18.30;99.90
11818;DHT22;5966;52.402;5.322;2022-08-19T02:04:57;18.20;99.90
11818;DHT22;5966;52.402;5.322;2022-08-19T02:07:29;18.20;99.90
11818;DHT22;5966;52.402;5.322;2022-08-19T02:10:05;18.20;99.90
11818;DHT22;5966;52.402;5.322;2022-08-19T02:12:41;18.20;99.90
11818;DHT22;5966;52.402;5.322;2022-08-19T02:15:15;18.10;99.90
11818;DHT22;5966;52.402;5.322;2022-08-19T02:17:49;18.10;99.90
11818;DHT22;5966;52.402;5.322;2022-08-19T02:20:24;18.20;99.90
11818;DHT22;5966;52.402;5.322;2022-08-19T02:22:58;18.10;99.90
11818;DHT22;5966;52.402;5.322;2022-08-19T02:25:29;18.20;99.90
11818;DHT22;5966;52.402;5.322;2022-08-19T02:28:01;18.10;99.90
11818;DHT22;5966;52.402;5.322;2022-08-19T02:30:47;18.10;99.90
11818;DHT22;5966;52.402;5.322;2022-08-19T02:33:35;18.20;99.90
11818;DHT22;5966;52.402;5.322;2022-08-19T02:36:12;18.20;99.90
11818;DHT22;5966;52.402;5.322;2022-08-19T02:38:56;18.20;99.90
11818;DHT22;5966;52.402;5.322;2022-08-19T02:41:40;18.20;99.90
11818;DHT22;5966;52.402;5.322;2022-08-19T02:44:24;18.20;99.90
11818;DHT22;5966;52.402;5.322;2022-08-19T02:47:07;18.10;99.90
11818;DHT22;5966;52.402;5.322;2022-08-19T02:50:00;18.10;99.90
11818;DHT22;5966;52.402;5.322;2022-08-19T02:52:52;18.10;99.90
11818;DHT22;5966;52.402;5.322;2022-08-19T02:55:36;18.00;99.90
11818;DHT22;5966;52.402;5.322;2022-08-19T02:58:16;18.00;99.90
11818;DHT22;5966;52.402;5.322;2022-08-19T03:00:51;18.00;99.90
11818;DHT22;5966;52.402;5.322;2022-08-19T03:03:25;18.00;99.90
11818;DHT22;5966;52.402;5.322;2022-08-19T03:06:06;18.00;99.90
11818;DHT22;5966;52.402;5.322;2022-08-19T03:08:43;18.00;99.90
11818;DHT22;5966;52.402;5.322;2022-08-19T03:11:19;18.00;99.90
11818;DHT22;5966;52.402;5.322;2022-08-19T03:13:51;17.90;99.90
11818;DHT22;5966;52.402;5.322;2022-08-19T03:16:23;17.80;99.90
11818;DHT22;5966;52.402;5.322;2022-08-19T03:18:58;17.90;99.90
11818;DHT22;5966;52.402;5.322;2022-08-19T03:21:32;17.90;99.90
11818;DHT22;5966;52.402;5.322;2022-08-19T03:24:18;17.90;99.90
11818;DHT22;5966;52.402;5.322;2022-08-19T03:27:13;17.90;99.90
11818;DHT22;5966;52.402;5.322;2022-08-19T03:30:08;17.90;99.90
11818;DHT22;5966;52.402;5.322;2022-08-19T03:32:58;17.90;99.90
11818;DHT22;5966;52.402;5.322;2022-08-19T03:36:05;17.90;99.90
11818;DHT22;5966;52.402;5.322;2022-08-19T03:38:37;17.90;99.90
11818;DHT22;5966;52.402;5.322;2022-08-19T03:41:08;17.90;99.90
11818;DHT22;5966;52.402;5.322;2022-08-19T03:43:38;17.80;99.90
11818;DHT22;5966;52.402;5.322;2022-08-19T03:46:11;17.70;99.90
11818;DHT22;5966;52.402;5.322;2022-08-19T03:48:42;17.70;99.90
11818;DHT22;5966;52.402;5.322;2022-08-19T03:51:17;17.60;99.90
11818;DHT22;5966;52.402;5.322;2022-08-19T03:53:58;17.50;99.90
11818;DHT22;5966;52.402;5.322;2022-08-19T03:56:30;17.50;99.90
11818;DHT22;5966;52.402;5.322;2022-08-19T03:58:59;17.50;99.90
11818;DHT22;5966;52.402;5.322;2022-08-19T04:01:35;17.50;99.90
11818;DHT22;5966;52.402;5.322;2022-08-19T04:04:06;17.50;99.90
11818;DHT22;5966;52.402;5.322;2022-08-19T04:06:37;17.50;99.90
11818;DHT22;5966;52.402;5.322;2022-08-19T04:09:08;17.50;99.90
11818;DHT22;5966;52.402;5.322;2022-08-19T04:11:40;17.60;99.90
11818;DHT22;5966;52.402;5.322;2022-08-19T04:14:19;17.60;99.90
11818;DHT22;5966;52.402;5.322;2022-08-19T04:16:50;17.60;99.90
11818;DHT22;5966;52.402;5.322;2022-08-19T04:19:22;17.60;99.90
11818;DHT22;5966;52.402;5.322;2022-08-19T04:21:54;17.70;99.90
11818;DHT22;5966;52.402;5.322;2022-08-19T04:24:23;17.70;99.90
11818;DHT22;5966;52.402;5.322;2022-08-19T04:27:00;17.70;99.90
11818;DHT22;5966;52.402;5.322;2022-08-19T04:29:32;17.70;99.90
11818;DHT22;5966;52.402;5.322;2022-08-19T04:32:03;17.70;99.90
11818;DHT22;5966;52.402;5.322;2022-08-19T04:34:36;17.70;99.90
11818;DHT22;5966;52.402;5.322;2022-08-19T04:37:25;17.70;99.90
11818;DHT22;5966;52.402;5.322;2022-08-19T04:40:01;17.70;99.90
11818;DHT22;5966;52.402;5.322;2022-08-19T04:42:50;17.60;99.90
11818;DHT22;5966;52.402;5.322;2022-08-19T04:45:24;17.60;99.90
11818;DHT22;5966;52.402;5.322;2022-08-19T04:48:14;17.60;99.90
11818;DHT22;5966;52.402;5.322;2022-08-19T04:50:54;17.60;99.90
11818;DHT22;5966;52.402;5.322;2022-08-19T04:53:33;17.50;99.90
11818;DHT22;5966;52.402;5.322;2022-08-19T04:56:11;17.50;99.90
11818;DHT22;5966;52.402;5.322;2022-08-19T04:58:50;17.50;99.90
11818;DHT22;5966;52.402;5.322;2022-08-19T05:01:26;17.40;99.90
11818;DHT22;5966;52.402;5.322;2022-08-19T05:04:01;17.50;99.90
11818;DHT22;5966;52.402;5.322;2022-08-19T05:06:38;17.50;99.90
11818;DHT22;5966;52.402;5.322;2022-08-19T05:09:13;17.50;99.90
11818;DHT22;5966;52.402;5.322;2022-08-19T05:11:55;17.50;99.90
11818;DHT22;5966;52.402;5.322;2022-08-19T05:14:40;17.50;99.90
11818;DHT22;5966;52.402;5.322;2022-08-19T05:17:19;17.50;99.90
11818;DHT22;5966;52.402;5.322;2022-08-19T05:20:17;17.60;99.90
11818;DHT22;5966;52.402;5.322;2022-08-19T05:23:32;17.60;99.90
11818;DHT22;5966;52.402;5.322;2022-08-19T05:26:33;17.60;99.90
11818;DHT22;5966;52.402;5.322;2022-08-19T05:29:02;17.70;99.90
11818;DHT22;5966;52.402;5.322;2022-08-19T05:31:37;17.70;99.90
11818;DHT22;5966;52.402;5.322;2022-08-19T05:34:08;17.70;99.90
11818;DHT22;5966;52.402;5.322;2022-08-19T05:36:50;17.70;99.90
11818;DHT22;5966;52.402;5.322;2022-08-19T05:39:30;17.80;99.90
11818;DHT22;5966;52.402;5.322;2022-08-19T05:42:33;17.90;99.90
11818;DHT22;5966;52.402;5.322;2022-08-19T05:46:00;17.90;99.90
11818;DHT22;5966;52.402;5.322;2022-08-19T05:49:22;18.10;99.90
11818;DHT22;5966;52.402;5.322;2022-08-19T05:55:20;18.30;99.90
11818;DHT22;5966;52.402;5.322;2022-08-19T05:58:13;18.40;99.90
11818;DHT22;5966;52.402;5.322;2022-08-19T06:01:02;18.60;99.90
11818;DHT22;5966;52.402;5.322;2022-08-19T06:04:06;18.70;99.90
11818;DHT22;5966;52.402;5.322;2022-08-19T06:07:14;18.80;99.90
11818;DHT22;5966;52.402;5.322;2022-08-19T06:10:41;18.90;99.90
11818;DHT22;5966;52.402;5.322;2022-08-19T06:16:18;19.20;99.90
11818;DHT22;5966;52.402;5.322;2022-08-19T06:18:52;19.30;99.90
11818;DHT22;5966;52.402;5.322;2022-08-19T06:21:42;19.40;99.90
11818;DHT22;5966;52.402;5.322;2022-08-19T06:24:42;19.50;99.90
11818;DHT22;5966;52.402;5.322;2022-08-19T06:30:28;19.60;99.90
11818;DHT22;5966;52.402;5.322;2022-08-19T06:33:25;19.60;99.90
11818;DHT22;5966;52.402;5.322;2022-08-19T06:36:46;19.60;99.90
11818;DHT22;5966;52.402;5.322;2022-08-19T06:39:28;19.60;99.90
11818;DHT22;5966;52.402;5.322;2022-08-19T06:42:19;19.70;99.90
11818;DHT22;5966;52.402;5.322;2022-08-19T06:44:52;19.80;99.90
11818;DHT22;5966;52.402;5.322;2022-08-19T06:47:43;19.70;99.90
11818;DHT22;5966;52.402;5.322;2022-08-19T06:50:24;19.80;99.90
11818;DHT22;5966;52.402;5.322;2022-08-19T06:53:18;19.90;99.90
11818;DHT22;5966;52.402;5.322;2022-08-19T06:56:00;19.90;99.90
11818;DHT22;5966;52.402;5.322;2022-08-19T06:58:48;19.90;99.90
11818;DHT22;5966;52.402;5.322;2022-08-19T07:01:42;19.90;99.90
11818;DHT22;5966;52.402;5.322;2022-08-19T07:04:22;19.90;99.90
11818;DHT22;5966;52.402;5.322;2022-08-19T07:07:23;19.90;99.90
11818;DHT22;5966;52.402;5.322;2022-08-19T07:10:14;20.00;99.90
11818;DHT22;5966;52.402;5.322;2022-08-19T07:12:51;20.00;99.90
11818;DHT22;5966;52.402;5.322;2022-08-19T07:15:28;20.10;99.90
11818;DHT22;5966;52.402;5.322;2022-08-19T07:18:18;20.10;99.90
11818;DHT22;5966;52.402;5.322;2022-08-19T07:21:25;20.20;99.90
11818;DHT22;5966;52.402;5.322;2022-08-19T07:24:12;20.20;99.90
11818;DHT22;5966;52.402;5.322;2022-08-19T07:26:59;20.10;99.90
11818;DHT22;5966;52.402;5.322;2022-08-19T07:29:55;20.10;99.90
11818;DHT22;5966;52.402;5.322;2022-08-19T07:32:29;20.10;99.90
11818;DHT22;5966;52.402;5.322;2022-08-19T07:35:19;20.10;99.90
11818;DHT22;5966;52.402;5.322;2022-08-19T07:38:16;20.00;99.90
11818;DHT22;5966;52.402;5.322;2022-08-19T07:41:11;20.10;99.90
11818;DHT22;5966;52.402;5.322;2022-08-19T07:43:57;20.10;99.90
11818;DHT22;5966;52.402;5.322;2022-08-19T07:46:53;20.20;99.90
11818;DHT22;5966;52.402;5.322;2022-08-19T07:49:34;20.20;99.90
11818;DHT22;5966;52.402;5.322;2022-08-19T07:52:08;20.20;99.90
11818;DHT22;5966;52.402;5.322;2022-08-19T07:54:55;20.30;99.90
11818;DHT22;5966;52.402;5.322;2022-08-19T07:58:04;20.30;99.90
11818;DHT22;5966;52.402;5.322;2022-08-19T08:00:53;20.40;99.90
11818;DHT22;5966;52.402;5.322;2022-08-19T08:03:32;20.40;99.90
11818;DHT22;5966;52.402;5.322;2022-08-19T08:06:39;20.30;99.90
11818;DHT22;5966;52.402;5.322;2022-08-19T08:09:37;20.30;99.90
11818;DHT22;5966;52.402;5.322;2022-08-19T08:12:19;20.30;99.90
11818;DHT22;5966;52.402;5.322;2022-08-19T08:15:11;20.30;99.90
11818;DHT22;5966;52.402;5.322;2022-08-19T08:18:18;20.40;99.90
11818;DHT22;5966;52.402;5.322;2022-08-19T08:21:17;20.40;99.90
11818;DHT22;5966;52.402;5.322;2022-08-19T08:24:08;20.50;99.90
11818;DHT22;5966;52.402;5.322;2022-08-19T08:26:54;20.50;99.90
11818;DHT22;5966;52.402;5.322;2022-08-19T08:29:33;20.50;99.90
11818;DHT22;5966;52.402;5.322;2022-08-19T08:32:06;20.60;99.90
11818;DHT22;5966;52.402;5.322;2022-08-19T08:34:58;20.60;99.90
11818;DHT22;5966;52.402;5.322;2022-08-19T08:37:32;20.70;99.90
11818;DHT22;5966;52.402;5.322;2022-08-19T08:40:22;20.70;99.90
11818;DHT22;5966;52.402;5.322;2022-08-19T08:43:32;20.80;99.90
11818;DHT22;5966;52.402;5.322;2022-08-19T08:46:30;20.90;99.90
11818;DHT22;5966;52.402;5.322;2022-08-19T08:49:43;20.90;99.90
11818;DHT22;5966;52.402;5.322;2022-08-19T08:52:36;21.00;99.90
11818;DHT22;5966;52.402;5.322;2022-08-19T08:55:26;21.00;99.90
11818;DHT22;5966;52.402;5.322;2022-08-19T08:58:24;21.00;99.90
11818;DHT22;5966;52.402;5.322;2022-08-19T09:01:14;21.00;99.90
11818;DHT22;5966;52.402;5.322;2022-08-19T09:04:18;21.00;99.90
11818;DHT22;5966;52.402;5.322;2022-08-19T09:07:39;21.00;99.90
11818;DHT22;5966;52.402;5.322;2022-08-19T09:10:48;21.20;99.90
11818;DHT22;5966;52.402;5.322;2022-08-19T09:14:10;21.30;99.90
11818;DHT22;5966;52.402;5.322;2022-08-19T09:17:03;21.40;99.90
11818;DHT22;5966;52.402;5.322;2022-08-19T09:19:35;21.50;99.90
11818;DHT22;5966;52.402;5.322;2022-08-19T09:22:10;21.60;99.90
11818;DHT22;5966;52.402;5.322;2022-08-19T09:25:04;21.70;99.90
11818;DHT22;5966;52.402;5.322;2022-08-19T09:27:36;21.70;99.90
11818;DHT22;5966;52.402;5.322;2022-08-19T09:30:13;21.80;99.90
11818;DHT22;5966;52.402;5.322;2022-08-19T09:32:52;21.80;99.90
11818;DHT22;5966;52.402;5.322;2022-08-19T09:35:26;21.90;99.90
11818;DHT22;5966;52.402;5.322;2022-08-19T09:38:19;21.90;99.90
11818;DHT22;5966;52.402;5.322;2022-08-19T09:40:48;22.00;99.90
11818;DHT22;5966;52.402;5.322;2022-08-19T09:43:18;22.00;99.90
11818;DHT22;5966;52.402;5.322;2022-08-19T09:46:07;22.00;99.90
11818;DHT22;5966;52.402;5.322;2022-08-19T09:48:36;22.00;99.90
11818;DHT22;5966;52.402;5.322;2022-08-19T09:51:07;21.90;99.90
11818;DHT22;5966;52.402;5.322;2022-08-19T09:53:41;21.90;99.90
11818;DHT22;5966;52.402;5.322;2022-08-19T09:56:12;21.80;99.90
11818;DHT22;5966;52.402;5.322;2022-08-19T09:58:47;21.80;99.90
11818;DHT22;5966;52.402;5.322;2022-08-19T10:01:18;21.80;99.90
11818;DHT22;5966;52.402;5.322;2022-08-19T10:03:52;21.80;99.90
11818;DHT22;5966;52.402;5.322;2022-08-19T10:06:28;21.80;99.90
11818;DHT22;5966;52.402;5.322;2022-08-19T10:09:14;21.90;99.90
11818;DHT22;5966;52.402;5.322;2022-08-19T10:12:01;22.00;99.90
11818;DHT22;5966;52.402;5.322;2022-08-19T10:14:31;22.10;99.90
11818;DHT22;5966;52.402;5.322;2022-08-19T10:17:01;22.10;99.90
11818;DHT22;5966;52.402;5.322;2022-08-19T10:19:47;22.20;99.90
11818;DHT22;5966;52.402;5.322;2022-08-19T10:22:23;22.20;99.90
11818;DHT22;5966;52.402;5.322;2022-08-19T10:24:57;22.20;99.90
11818;DHT22;5966;52.402;5.322;2022-08-19T10:27:27;22.30;99.90
11818;DHT22;5966;52.402;5.322;2022-08-19T10:30:01;22.40;99.90
11818;DHT22;5966;52.402;5.322;2022-08-19T10:32:29;22.50;99.90
11818;DHT22;5966;52.402;5.322;2022-08-19T10:35:00;22.60;99.90
11818;DHT22;5966;52.402;5.322;2022-08-19T10:37:31;22.60;99.90
11818;DHT22;5966;52.402;5.322;2022-08-19T10:40:01;22.70;99.90
11818;DHT22;5966;52.402;5.322;2022-08-19T10:42:31;22.80;99.90
11818;DHT22;5966;52.402;5.322;2022-08-19T10:45:00;22.90;99.90
11818;DHT22;5966;52.402;5.322;2022-08-19T10:47:32;22.90;99.90
11818;DHT22;5966;52.402;5.322;2022-08-19T10:50:00;22.90;99.90
11818;DHT22;5966;52.402;5.322;2022-08-19T10:52:47;22.90;99.90
11818;DHT22;5966;52.402;5.322;2022-08-19T10:55:18;22.80;99.90
11818;DHT22;5966;52.402;5.322;2022-08-19T10:58:09;22.80;99.90
11818;DHT22;5966;52.402;5.322;2022-08-19T11:00:40;22.70;99.90
11818;DHT22;5966;52.402;5.322;2022-08-19T11:03:10;22.70;99.90
11818;DHT22;5966;52.402;5.322;2022-08-19T11:05:38;22.70;99.90
11818;DHT22;5966;52.402;5.322;2022-08-19T11:08:09;22.70;99.90
11818;DHT22;5966;52.402;5.322;2022-08-19T11:10:50;22.80;99.90
11818;DHT22;5966;52.402;5.322;2022-08-19T11:13:28;22.90;99.90
11818;DHT22;5966;52.402;5.322;2022-08-19T11:16:08;23.00;99.90
11818;DHT22;5966;52.402;5.322;2022-08-19T11:18:41;23.00;99.90
11818;DHT22;5966;52.402;5.322;2022-08-19T11:21:17;23.00;99.90
11818;DHT22;5966;52.402;5.322;2022-08-19T11:23:47;23.00;99.90
11818;DHT22;5966;52.402;5.322;2022-08-19T11:26:16;23.00;99.90
11818;DHT22;5966;52.402;5.322;2022-08-19T11:28:47;23.00;99.90
11818;DHT22;5966;52.402;5.322;2022-08-19T11:31:21;23.00;99.90
11818;DHT22;5966;52.402;5.322;2022-08-19T11:33:56;23.00;99.90
11818;DHT22;5966;52.402;5.322;2022-08-19T11:36:27;23.00;99.90
11818;DHT22;5966;52.402;5.322;2022-08-19T11:39:03;23.00;99.90
11818;DHT22;5966;52.402;5.322;2022-08-19T11:41:35;23.00;99.90
11818;DHT22;5966;52.402;5.322;2022-08-19T11:44:04;23.00;99.90
11818;DHT22;5966;52.402;5.322;2022-08-19T11:46:45;23.00;99.90
11818;DHT22;5966;52.402;5.322;2022-08-19T11:49:37;23.00;99.90
11818;DHT22;5966;52.402;5.322;2022-08-19T11:52:30;23.00;99.90
11818;DHT22;5966;52.402;5.322;2022-08-19T11:55:00;23.00;99.90
11818;DHT22;5966;52.402;5.322;2022-08-19T11:57:46;23.00;99.90
11818;DHT22;5966;52.402;5.322;2022-08-19T12:00:24;23.00;99.90
11818;DHT22;5966;52.402;5.322;2022-08-19T12:03:06;23.00;99.90
11818;DHT22;5966;52.402;5.322;2022-08-19T12:05:38;23.00;99.90
11818;DHT22;5966;52.402;5.322;2022-08-19T12:08:10;23.00;99.90
11818;DHT22;5966;52.402;5.322;2022-08-19T12:11:05;23.00;99.90
11818;DHT22;5966;52.402;5.322;2022-08-19T12:13:39;23.00;99.90
11818;DHT22;5966;52.402;5.322;2022-08-19T12:16:22;23.10;99.90
11818;DHT22;5966;52.402;5.322;2022-08-19T12:19:23;23.10;99.90
11818;DHT22;5966;52.402;5.322;2022-08-19T12:24:33;23.00;99.90
11818;DHT22;5966;52.402;5.322;2022-08-19T12:27:08;22.90;99.90
11818;DHT22;5966;52.402;5.322;2022-08-19T12:29:59;22.90;99.90
11818;DHT22;5966;52.402;5.322;2022-08-19T12:35:08;22.90;99.90
11818;DHT22;5966;52.402;5.322;2022-08-19T12:38:07;23.00;99.90
11818;DHT22;5966;52.402;5.322;2022-08-19T12:40:45;23.00;99.90
11818;DHT22;5966;52.402;5.322;2022-08-19T12:43:37;23.00;99.90
11818;DHT22;5966;52.402;5.322;2022-08-19T12:46:11;23.00;99.90
11818;DHT22;5966;52.402;5.322;2022-08-19T12:48:44;23.10;99.90
11818;DHT22;5966;52.402;5.322;2022-08-19T12:51:19;23.10;99.90
11818;DHT22;5966;52.402;5.322;2022-08-19T12:53:51;23.10;99.90
11818;DHT22;5966;52.402;5.322;2022-08-19T12:56:24;23.10;99.90
11818;DHT22;5966;52.402;5.322;2022-08-19T12:59:14;23.10;99.90
11818;DHT22;5966;52.402;5.322;2022-08-19T13:01:49;23.10;99.90
11818;DHT22;5966;52.402;5.322;2022-08-19T13:04:28;23.20;99.90
11818;DHT22;5966;52.402;5.322;2022-08-19T13:07:07;23.20;99.90
11818;DHT22;5966;52.402;5.322;2022-08-19T13:09:37;23.20;99.90
11818;DHT22;5966;52.402;5.322;2022-08-19T13:12:13;23.30;99.90
11818;DHT22;5966;52.402;5.322;2022-08-19T13:14:54;23.30;99.90
11818;DHT22;5966;52.402;5.322;2022-08-19T13:17:38;23.40;99.90
11818;DHT22;5966;52.402;5.322;2022-08-19T13:20:18;23.40;99.90
11818;DHT22;5966;52.402;5.322;2022-08-19T13:22:53;23.50;99.90
11818;DHT22;5966;52.402;5.322;2022-08-19T13:25:30;23.50;99.90
11818;DHT22;5966;52.402;5.322;2022-08-19T13:28:22;23.40;99.90
11818;DHT22;5966;52.402;5.322;2022-08-19T13:30:55;23.40;99.90
11818;DHT22;5966;52.402;5.322;2022-08-19T13:33:42;23.30;99.90
11818;DHT22;5966;52.402;5.322;2022-08-19T13:36:22;23.30;99.90
11818;DHT22;5966;52.402;5.322;2022-08-19T13:38:59;23.30;99.90
11818;DHT22;5966;52.402;5.322;2022-08-19T13:41:28;23.30;99.90
11818;DHT22;5966;52.402;5.322;2022-08-19T13:43:58;23.30;99.90
11818;DHT22;5966;52.402;5.322;2022-08-19T13:46:28;23.30;99.90
11818;DHT22;5966;52.402;5.322;2022-08-19T13:48:59;23.30;99.90
11818;DHT22;5966;52.402;5.322;2022-08-19T13:51:27;23.40;99.90
11818;DHT22;5966;52.402;5.322;2022-08-19T13:53:59;23.50;99.90
11818;DHT22;5966;52.402;5.322;2022-08-19T13:56:28;23.50;99.90
11818;DHT22;5966;52.402;5.322;2022-08-19T13:58:56;23.60;99.90
11818;DHT22;5966;52.402;5.322;2022-08-19T14:01:25;23.60;99.90
11818;DHT22;5966;52.402;5.322;2022-08-19T14:03:53;23.60;99.90
11818;DHT22;5966;52.402;5.322;2022-08-19T14:06:22;23.60;99.90
11818;DHT22;5966;52.402;5.322;2022-08-19T14:08:52;23.50;99.90
11818;DHT22;5966;52.402;5.322;2022-08-19T14:11:25;23.50;99.90
11818;DHT22;5966;52.402;5.322;2022-08-19T14:13:54;23.50;99.90
11818;DHT22;5966;52.402;5.322;2022-08-19T14:16:23;23.50;99.90
11818;DHT22;5966;52.402;5.322;2022-08-19T14:18:55;23.60;99.90
11818;DHT22;5966;52.402;5.322;2022-08-19T14:21:29;23.60;99.90
11818;DHT22;5966;52.402;5.322;2022-08-19T14:24:00;23.70;99.90
11818;DHT22;5966;52.402;5.322;2022-08-19T14:26:31;23.60;99.90
11818;DHT22;5966;52.402;5.322;2022-08-19T14:29:03;23.70;99.90
11818;DHT22;5966;52.402;5.322;2022-08-19T14:31:31;23.70;99.90
11818;DHT22;5966;52.402;5.322;2022-08-19T14:34:01;23.60;99.90
11818;DHT22;5966;52.402;5.322;2022-08-19T14:36:31;23.60;99.90
11818;DHT22;5966;52.402;5.322;2022-08-19T14:39:07;23.70;99.90
11818;DHT22;5966;52.402;5.322;2022-08-19T14:41:43;23.70;99.90
11818;DHT22;5966;52.402;5.322;2022-08-19T14:44:12;23.70;99.90
11818;DHT22;5966;52.402;5.322;2022-08-19T14:46:43;23.70;99.90
11818;DHT22;5966;52.402;5.322;2022-08-19T14:49:15;23.70;99.90
11818;DHT22;5966;52.402;5.322;2022-08-19T14:51:45;23.70;99.90
11818;DHT22;5966;52.402;5.322;2022-08-19T14:54:18;23.70;99.90
11818;DHT22;5966;52.402;5.322;2022-08-19T14:57:05;23.70;99.90
11818;DHT22;5966;52.402;5.322;2022-08-19T14:59:34;23.70;99.90
11818;DHT22;5966;52.402;5.322;2022-08-19T15:02:03;23.70;99.90
11818;DHT22;5966;52.402;5.322;2022-08-19T15:05:05;23.70;99.90
11818;DHT22;5966;52.402;5.322;2022-08-19T15:07:45;23.70;99.90
11818;DHT22;5966;52.402;5.322;2022-08-19T15:10:21;23.80;99.90
11818;DHT22;5966;52.402;5.322;2022-08-19T15:13:03;23.80;99.90
11818;DHT22;5966;52.402;5.322;2022-08-19T15:15:33;23.80;99.90
11818;DHT22;5966;52.402;5.322;2022-08-19T15:18:11;23.90;99.90
11818;DHT22;5966;52.402;5.322;2022-08-19T15:20:44;23.90;99.90
11818;DHT22;5966;52.402;5.322;2022-08-19T15:23:17;23.90;99.90
11818;DHT22;5966;52.402;5.322;2022-08-19T15:25:49;23.90;99.90
11818;DHT22;5966;52.402;5.322;2022-08-19T15:28:25;23.90;99.90
11818;DHT22;5966;52.402;5.322;2022-08-19T15:31:00;23.90;99.90
11818;DHT22;5966;52.402;5.322;2022-08-19T15:33:51;23.90;99.90
11818;DHT22;5966;52.402;5.322;2022-08-19T15:36:26;23.90;99.90
11818;DHT22;5966;52.402;5.322;2022-08-19T15:38:58;23.90;99.90
11818;DHT22;5966;52.402;5.322;2022-08-19T15:41:31;23.80;99.90
11818;DHT22;5966;52.402;5.322;2022-08-19T15:44:10;23.90;99.90
11818;DHT22;5966;52.402;5.322;2022-08-19T15:46:41;23.80;99.90
11818;DHT22;5966;52.402;5.322;2022-08-19T15:49:17;23.70;99.90
11818;DHT22;5966;52.402;5.322;2022-08-19T15:51:48;23.70;99.90
11818;DHT22;5966;52.402;5.322;2022-08-19T15:54:19;23.70;99.90
11818;DHT22;5966;52.402;5.322;2022-08-19T15:56:49;23.70;99.90
11818;DHT22;5966;52.402;5.322;2022-08-19T15:59:41;23.80;99.90
11818;DHT22;5966;52.402;5.322;2022-08-19T16:02:32;23.80;99.90
11818;DHT22;5966;52.402;5.322;2022-08-19T16:05:24;23.80;99.90
11818;DHT22;5966;52.402;5.322;2022-08-19T16:08:10;23.90;99.90
11818;DHT22;5966;52.402;5.322;2022-08-19T16:10:41;23.90;99.90
11818;DHT22;5966;52.402;5.322;2022-08-19T16:13:18;24.00;99.90
11818;DHT22;5966;52.402;5.322;2022-08-19T16:15:51;24.10;99.90
11818;DHT22;5966;52.402;5.322;2022-08-19T16:18:23;24.10;99.90
11818;DHT22;5966;52.402;5.322;2022-08-19T16:20:52;24.10;99.90
11818;DHT22;5966;52.402;5.322;2022-08-19T16:23:22;24.20;99.90
11818;DHT22;5966;52.402;5.322;2022-08-19T16:25:55;24.10;99.90
11818;DHT22;5966;52.402;5.322;2022-08-19T16:28:31;24.10;99.90
11818;DHT22;5966;52.402;5.322;2022-08-19T16:31:05;24.10;99.90
11818;DHT22;5966;52.402;5.322;2022-08-19T16:33:40;24.10;99.90
11818;DHT22;5966;52.402;5.322;2022-08-19T16:36:09;24.00;99.90
11818;DHT22;5966;52.402;5.322;2022-08-19T16:38:44;23.90;99.90
11818;DHT22;5966;52.402;5.322;2022-08-19T16:41:14;23.70;99.90
11818;DHT22;5966;52.402;5.322;2022-08-19T16:43:44;23.70;99.90
11818;DHT22;5966;52.402;5.322;2022-08-19T16:46:23;23.60;99.90
11818;DHT22;5966;52.402;5.322;2022-08-19T16:48:54;23.50;99.90
11818;DHT22;5966;52.402;5.322;2022-08-19T16:51:24;23.40;99.90
11818;DHT22;5966;52.402;5.322;2022-08-19T16:53:55;23.30;99.90
11818;DHT22;5966;52.402;5.322;2022-08-19T16:56:26;23.30;99.90
11818;DHT22;5966;52.402;5.322;2022-08-19T16:58:57;23.20;99.90
11818;DHT22;5966;52.402;5.322;2022-08-19T17:01:28;23.20;99.90
11818;DHT22;5966;52.402;5.322;2022-08-19T17:04:06;23.20;99.90
11818;DHT22;5966;52.402;5.322;2022-08-19T17:06:36;23.10;99.90
11818;DHT22;5966;52.402;5.322;2022-08-19T17:09:10;23.10;99.90
11818;DHT22;5966;52.402;5.322;2022-08-19T17:12:04;23.10;99.90
11818;DHT22;5966;52.402;5.322;2022-08-19T17:14:38;23.00;99.90
11818;DHT22;5966;52.402;5.322;2022-08-19T17:17:25;23.00;99.90